createdAt,value
2023-08-07T00:02:10.310Z,100937.38
2023-08-07T00:04:37.463Z,100935.17
2023-08-07T00:07:04.782Z,100935.34
2023-08-07T00:09:32.387Z,100933.27
2023-08-07T00:11:59.735Z,100936.21
2023-08-07T00:14:26.885Z,100938.98
2023-08-07T00:16:54.029Z,100937.30
2023-08-07T00:19:21.387Z,100944.79
2023-08-07T00:21:48.650Z,100940.23
2023-08-07T00:24:15.903Z,100939.06
2023-08-07T00:26:42.944Z,100942.45
2023-08-07T00:29:10.108Z,100942.49
2023-08-07T00:31:37.312Z,100944.38
2023-08-07T00:34:05.528Z,100946.30
2023-08-07T00:36:36.231Z,100945.61
2023-08-07T00:39:07.297Z,100947.75
2023-08-07T00:41:34.490Z,100943.41
2023-08-07T00:44:02.129Z,100945.84
2023-08-07T00:46:30.657Z,100945.73
2023-08-07T00:48:58.348Z,100947.48
2023-08-07T00:51:25.914Z,100945.41
2023-08-07T00:53:54.548Z,100941.29
2023-08-07T00:56:22.912Z,100937.38
2023-08-07T00:58:51.626Z,100932.77
2023-08-07T01:01:19.015Z,100930.32
2023-08-07T01:03:46.834Z,100927.49
2023-08-07T01:06:14.707Z,100924.24
2023-08-07T01:08:42.311Z,100924.48
2023-08-07T01:11:21.691Z,100923.79
2023-08-07T01:13:58.420Z,100922.33
2023-08-07T01:16:49.421Z,100922.23
2023-08-07T01:19:26.678Z,100922.14
2023-08-07T01:22:12.095Z,100920.33
2023-08-07T01:24:42.079Z,100921.13
2023-08-07T01:27:09.979Z,100917.77
2023-08-07T01:30:14.937Z,100920.13
2023-08-07T01:32:44.955Z,100917.79
2023-08-07T01:35:15.906Z,100916.45
2023-08-07T01:37:44.602Z,100913.23
2023-08-07T01:40:13.736Z,100910.81
2023-08-07T01:42:41.483Z,100911.70
2023-08-07T01:45:09.589Z,100920.27
2023-08-07T01:47:38.082Z,100915.00
2023-08-07T01:50:07.778Z,100915.01
2023-08-07T01:52:34.884Z,100912.11
2023-08-07T01:55:02.905Z,100916.39
2023-08-07T01:57:30.249Z,100917.98
2023-08-07T01:59:57.710Z,100915.61
2023-08-07T02:02:25.087Z,100914.36
2023-08-07T02:04:52.427Z,100913.66
2023-08-07T02:07:21.116Z,100915.46
2023-08-07T02:09:51.028Z,100918.89
2023-08-07T02:12:18.069Z,100923.13
2023-08-07T02:14:46.144Z,100927.19
2023-08-07T02:17:13.299Z,100927.19
2023-08-07T02:19:40.544Z,100927.56
2023-08-07T02:22:07.665Z,100922.67
2023-08-07T02:24:34.734Z,100921.13
2023-08-07T02:27:01.784Z,100924.40
2023-08-07T02:29:28.902Z,100926.77
2023-08-07T02:31:56.013Z,100930.63
2023-08-07T02:34:23.307Z,100934.38
2023-08-07T02:36:50.742Z,100933.09
2023-08-07T02:39:20.432Z,100935.24
2023-08-07T02:41:47.436Z,100933.70
2023-08-07T02:44:15.169Z,100935.46
2023-08-07T02:46:42.855Z,100936.65
2023-08-07T02:49:09.983Z,100942.02
2023-08-07T02:51:38.408Z,100946.15
2023-08-07T02:54:05.518Z,100948.01
2023-08-07T02:56:34.446Z,100947.80
2023-08-07T02:59:03.004Z,100947.41
2023-08-07T03:01:31.116Z,100945.42
2023-08-07T03:03:58.257Z,100944.73
2023-08-07T03:06:25.506Z,100937.92
2023-08-07T03:08:52.777Z,100944.58
2023-08-07T03:11:20.418Z,100939.59
2023-08-07T03:13:48.184Z,100929.52
2023-08-07T03:16:15.647Z,100928.79
2023-08-07T03:18:42.928Z,100929.06
2023-08-07T03:21:09.908Z,100929.75
2023-08-07T03:23:39.853Z,100931.02
2023-08-07T03:26:19.357Z,100931.95
2023-08-07T03:28:52.237Z,100925.48
2023-08-07T03:31:21.000Z,100923.81
2023-08-07T03:33:50.385Z,100925.23
2023-08-07T03:36:26.538Z,100929.25
2023-08-07T03:38:53.678Z,100928.10
2023-08-07T03:41:20.938Z,100927.95
2023-08-07T03:43:49.139Z,100928.71
2023-08-07T03:46:16.738Z,100926.77
2023-08-07T03:48:43.770Z,100925.34
2023-08-07T03:51:12.122Z,100927.51
2023-08-07T03:53:45.278Z,100925.70
2023-08-07T03:56:12.429Z,100926.06
2023-08-07T03:58:40.202Z,100928.38
2023-08-07T04:01:07.999Z,100935.88
2023-08-07T04:03:35.141Z,100938.23
2023-08-07T04:06:03.194Z,100943.83
2023-08-07T04:08:30.339Z,100946.58
2023-08-07T04:11:07.278Z,100949.85
2023-08-07T04:13:35.033Z,100956.20
2023-08-07T04:16:06.047Z,100957.48
2023-08-07T04:18:34.896Z,100964.11
2023-08-07T04:21:03.763Z,100962.85
2023-08-07T04:23:32.945Z,100960.73
2023-08-07T04:26:01.271Z,100958.54
2023-08-07T04:28:31.476Z,100957.29
2023-08-07T04:30:59.057Z,100953.37
2023-08-07T04:33:26.362Z,100956.71
2023-08-07T04:35:53.532Z,100956.30
2023-08-07T04:38:21.225Z,100955.77
2023-08-07T04:40:53.186Z,100960.88
2023-08-07T04:43:21.957Z,100963.14
2023-08-07T04:45:49.334Z,100968.58
2023-08-07T04:48:18.625Z,100968.27
2023-08-07T04:50:46.761Z,100966.35
2023-08-07T04:53:13.942Z,100970.14
2023-08-07T04:55:41.046Z,100974.14
2023-08-07T04:58:08.254Z,100975.94
2023-08-07T05:00:35.393Z,100980.10
2023-08-07T05:03:02.975Z,100986.80
2023-08-07T05:05:30.284Z,100989.22
2023-08-07T05:07:59.541Z,100991.30
2023-08-07T05:10:26.642Z,100992.30
2023-08-07T05:12:56.625Z,100993.38
2023-08-07T05:15:24.865Z,100996.09
2023-08-07T05:17:53.066Z,100996.48
2023-08-07T05:20:20.383Z,100993.41
2023-08-07T05:22:48.275Z,100990.73
2023-08-07T05:25:18.636Z,100986.76
2023-08-07T05:27:48.721Z,100988.69
2023-08-07T05:30:16.277Z,100989.16
2023-08-07T05:32:43.545Z,100988.16
2023-08-07T05:35:10.938Z,100985.56
2023-08-07T05:37:38.074Z,100990.33
2023-08-07T05:40:06.562Z,100991.05
2023-08-07T05:42:33.630Z,100995.02
2023-08-07T05:45:00.811Z,100998.80
2023-08-07T05:47:27.851Z,101001.39
2023-08-07T05:49:54.976Z,101007.64
2023-08-07T05:52:22.195Z,101007.64
2023-08-07T05:54:49.176Z,101001.02
2023-08-07T05:57:16.438Z,100994.40
2023-08-07T05:59:43.548Z,100995.17
2023-08-07T06:02:14.813Z,100995.38
2023-08-07T06:04:42.297Z,101002.70
2023-08-07T06:07:09.622Z,101009.02
2023-08-07T06:09:37.070Z,101013.48
2023-08-07T06:12:04.416Z,101012.44
2023-08-07T06:14:31.543Z,101019.19
2023-08-07T06:17:03.128Z,101020.74
2023-08-07T06:19:32.551Z,101027.10
2023-08-07T06:22:01.031Z,101025.02
2023-08-07T06:24:28.960Z,101023.30
2023-08-07T06:26:56.104Z,101020.30
2023-08-07T06:29:23.532Z,101026.89
2023-08-07T06:31:50.588Z,101024.08
2023-08-07T06:34:17.823Z,101029.08
2023-08-07T06:36:44.903Z,101028.92
2023-08-07T06:39:12.019Z,101033.10
2023-08-07T06:41:39.178Z,101032.52
2023-08-07T06:44:06.310Z,101033.37
2023-08-07T06:46:33.666Z,101039.04
2023-08-07T06:49:00.721Z,101033.74
2023-08-07T06:51:28.028Z,101031.75
2023-08-07T06:53:55.008Z,101032.17
2023-08-07T06:56:22.442Z,101035.33
2023-08-07T06:58:49.516Z,101028.98
2023-08-07T07:01:17.065Z,101033.76
2023-08-07T07:03:46.918Z,101032.87
2023-08-07T07:06:14.521Z,101030.44
2023-08-07T07:08:41.546Z,101033.48
2023-08-07T07:11:09.612Z,101036.71
2023-08-07T07:13:36.967Z,101040.46
2023-08-07T07:16:04.033Z,101036.94
2023-08-07T07:18:31.133Z,101035.86
2023-08-07T07:21:01.704Z,101030.23
2023-08-07T07:23:29.378Z,101031.20
2023-08-07T07:25:56.787Z,101028.27
2023-08-07T07:28:24.195Z,101029.34
2023-08-07T07:30:51.637Z,101029.70
2023-08-07T07:33:18.890Z,101030.09
2023-08-07T07:35:46.113Z,101035.13
2023-08-07T07:38:13.670Z,101035.86
2023-08-07T07:40:40.860Z,101041.95
2023-08-07T07:43:09.145Z,101045.02
2023-08-07T07:45:37.627Z,101046.66
2023-08-07T07:48:05.669Z,101047.35
2023-08-07T07:50:34.416Z,101051.14
2023-08-07T07:53:01.614Z,101058.20
2023-08-07T07:55:28.680Z,101057.47
2023-08-07T07:57:56.541Z,101055.73
2023-08-07T08:00:28.133Z,101062.45
2023-08-07T08:02:55.648Z,101058.67
2023-08-07T08:05:23.124Z,101063.87
2023-08-07T08:07:51.158Z,101062.02
2023-08-07T08:10:19.649Z,101058.48
2023-08-07T08:12:46.802Z,101064.23
2023-08-07T08:15:16.065Z,101059.02
2023-08-07T08:17:43.324Z,101062.10
2023-08-07T08:20:11.490Z,101066.77
2023-08-07T08:22:38.985Z,101063.48
2023-08-07T08:25:07.918Z,101061.71
2023-08-07T08:27:35.098Z,101068.64
2023-08-07T08:30:04.989Z,101072.77
2023-08-07T08:32:34.693Z,101071.04
2023-08-07T08:35:02.936Z,101071.58
2023-08-07T08:37:30.636Z,101074.03
2023-08-07T08:39:57.794Z,101079.23
2023-08-07T08:42:26.535Z,101078.06
2023-08-07T08:44:56.459Z,101083.92
2023-08-07T08:47:27.058Z,101083.70
2023-08-07T08:50:06.130Z,101085.85
2023-08-07T08:52:37.338Z,101082.61
2023-08-07T08:55:08.721Z,101083.42
2023-08-07T08:57:41.809Z,101089.58
2023-08-07T09:00:20.990Z,101091.14
2023-08-07T09:02:53.594Z,101087.23
2023-08-07T09:05:24.208Z,101088.40
2023-08-07T09:07:52.110Z,101087.59
2023-08-07T09:10:20.114Z,101087.33
2023-08-07T09:12:59.666Z,101084.44
2023-08-07T09:15:31.550Z,101082.92
2023-08-07T09:18:00.921Z,101086.90
2023-08-07T09:20:29.872Z,101084.91
2023-08-07T09:22:58.930Z,101079.83
2023-08-07T09:25:34.675Z,101086.86
2023-08-07T09:28:06.117Z,101076.15
2023-08-07T09:30:39.686Z,101083.55
2023-08-07T09:33:08.491Z,101081.93
2023-08-07T09:35:36.066Z,101083.02
2023-08-07T09:38:03.515Z,101074.42
2023-08-07T09:40:34.697Z,101070.34
2023-08-07T09:43:04.463Z,101061.92
2023-08-07T09:45:33.128Z,101064.02
2023-08-07T09:48:04.795Z,101072.96
2023-08-07T09:50:34.524Z,101072.27
2023-08-07T09:53:01.935Z,101071.58
2023-08-07T09:55:31.098Z,101076.34
2023-08-07T09:57:58.483Z,101075.42
2023-08-07T10:00:28.354Z,101073.98
2023-08-07T10:02:57.017Z,101068.67
2023-08-07T10:05:24.487Z,101068.30
2023-08-07T10:07:52.855Z,101062.89
2023-08-07T10:10:22.077Z,101067.48
2023-08-07T10:12:50.584Z,101056.05
2023-08-07T10:15:17.903Z,101055.30
2023-08-07T10:17:45.326Z,101054.48
2023-08-07T10:20:14.361Z,101055.23
2023-08-07T10:22:43.169Z,101054.09
2023-08-07T10:25:10.683Z,101059.95
2023-08-07T10:27:45.196Z,101056.52
2023-08-07T10:30:16.758Z,101052.55
2023-08-07T10:32:45.903Z,101050.07
2023-08-07T10:35:26.934Z,101051.61
2023-08-07T10:37:55.740Z,101052.91
2023-08-07T10:40:24.627Z,101052.58
2023-08-07T10:43:03.141Z,101042.68
2023-08-07T10:45:31.810Z,101037.23
2023-08-07T10:47:59.832Z,101040.17
2023-08-07T10:50:34.082Z,101047.05
2023-08-07T10:53:03.119Z,101044.21
2023-08-07T10:55:45.812Z,101036.58
2023-08-07T10:58:32.526Z,101041.75
2023-08-07T11:01:28.301Z,101036.42
2023-08-07T11:03:57.630Z,101034.39
2023-08-07T11:06:33.531Z,101035.34
2023-08-07T11:09:02.260Z,101034.39
2023-08-07T11:11:29.908Z,101037.98
2023-08-07T11:13:57.072Z,101031.11
2023-08-07T11:16:24.742Z,101026.98
2023-08-07T11:18:52.105Z,101027.52
2023-08-07T11:21:21.140Z,101027.56
2023-08-07T11:23:50.114Z,101030.71
2023-08-07T11:26:31.870Z,101031.81
2023-08-07T11:29:01.020Z,101025.54
2023-08-07T11:31:32.269Z,101035.01
2023-08-07T11:34:01.336Z,101039.13
2023-08-07T11:36:28.592Z,101035.92
2023-08-07T11:38:55.960Z,101034.35
2023-08-07T11:41:23.842Z,101037.41
2023-08-07T11:43:53.722Z,101035.17
2023-08-07T11:46:24.594Z,101035.06
2023-08-07T11:48:56.102Z,101031.20
2023-08-07T11:51:23.680Z,101030.94
2023-08-07T11:53:50.927Z,101034.17
2023-08-07T11:56:19.356Z,101028.79
2023-08-07T11:58:49.549Z,101032.73
2023-08-07T12:01:22.051Z,101023.23
2023-08-07T12:04:11.123Z,101020.61
2023-08-07T12:06:41.603Z,101013.83
2023-08-07T12:09:14.094Z,101006.44
2023-08-07T12:11:41.701Z,101004.92
2023-08-07T12:14:08.745Z,101004.61
2023-08-07T12:16:36.585Z,101000.13
2023-08-07T12:19:05.371Z,100998.23
2023-08-07T12:21:34.742Z,100997.35
2023-08-07T12:24:02.020Z,100999.52
2023-08-07T12:26:29.145Z,100989.68
2023-08-07T12:28:57.768Z,100990.06
2023-08-07T12:31:24.776Z,100992.15
2023-08-07T12:33:53.245Z,100988.25
2023-08-07T12:36:21.241Z,100986.48
2023-08-07T12:38:50.368Z,100989.56
2023-08-07T12:43:47.991Z,100992.10
2023-08-07T12:48:52.627Z,100987.55
2023-08-07T12:51:21.046Z,100980.90
2023-08-07T12:53:48.932Z,100970.72
2023-08-07T12:56:16.132Z,100961.98
2023-08-07T12:58:53.636Z,100964.98
2023-08-07T13:01:20.831Z,100973.44
2023-08-07T13:03:48.176Z,100971.95
2023-08-07T13:06:15.282Z,100972.08
2023-08-07T13:08:44.629Z,100967.15
2023-08-07T13:11:11.835Z,100970.91
2023-08-07T13:13:39.921Z,100973.65
2023-08-07T13:16:07.264Z,100965.80
2023-08-07T13:18:34.424Z,100960.75
2023-08-07T13:21:01.571Z,100968.16
2023-08-07T13:23:29.126Z,100966.80
2023-08-07T13:25:57.804Z,100972.30
2023-08-07T13:28:24.875Z,100972.20
2023-08-07T13:30:53.107Z,100969.67
2023-08-07T13:33:23.035Z,100972.00
2023-08-07T13:35:50.542Z,100974.09
2023-08-07T13:38:19.952Z,100980.55
2023-08-07T13:40:47.274Z,100976.86
2023-08-07T13:43:14.547Z,100978.51
2023-08-07T13:45:41.560Z,100969.22
2023-08-07T13:48:10.893Z,100969.02
2023-08-07T13:50:39.599Z,100971.99
2023-08-07T13:53:14.188Z,100983.98
2023-08-07T13:55:42.899Z,100985.39
2023-08-07T13:58:11.205Z,100983.12
2023-08-07T14:00:38.659Z,100982.24
2023-08-07T14:03:05.808Z,100994.85
2023-08-07T14:05:32.893Z,100991.26
2023-08-07T14:07:59.941Z,100993.27
2023-08-07T14:10:27.160Z,100988.72
2023-08-07T14:12:54.210Z,100983.00
2023-08-07T14:15:21.308Z,100981.84
2023-08-07T14:17:48.416Z,100975.89
2023-08-07T14:20:15.590Z,100982.10
2023-08-07T14:22:43.103Z,100981.94
2023-08-07T14:25:10.344Z,100992.02
2023-08-07T14:27:37.323Z,100994.67
2023-08-07T14:30:04.703Z,100996.49
2023-08-07T14:32:31.868Z,100991.30
2023-08-07T14:34:59.050Z,100993.98
2023-08-07T14:37:26.310Z,100998.05
2023-08-07T14:39:53.911Z,100999.08
2023-08-07T14:42:21.100Z,100992.62
2023-08-07T14:44:48.244Z,100994.29
2023-08-07T14:47:15.273Z,100994.03
2023-08-07T14:49:42.308Z,100995.16
2023-08-07T14:52:09.248Z,100991.05
2023-08-07T14:54:36.398Z,100991.90
2023-08-07T14:57:03.785Z,100987.01
2023-08-07T14:59:30.803Z,100989.92
2023-08-07T15:01:58.108Z,100990.34
2023-08-07T15:04:25.335Z,100983.23
2023-08-07T15:06:52.578Z,100978.77
2023-08-07T15:09:20.775Z,100979.40
2023-08-07T15:11:48.608Z,100987.33
2023-08-07T15:14:15.852Z,100988.58
2023-08-07T15:16:43.350Z,100990.36
2023-08-07T15:19:10.495Z,100985.80
2023-08-07T15:21:37.480Z,100990.80
2023-08-07T15:24:05.035Z,100986.14
2023-08-07T15:26:32.744Z,100972.80
2023-08-07T15:29:01.574Z,100974.48
2023-08-07T15:31:28.740Z,100972.11
2023-08-07T15:33:57.511Z,100973.13
2023-08-07T15:36:24.475Z,100977.13
2023-08-07T15:38:52.333Z,100974.93
2023-08-07T15:41:22.236Z,100973.34
2023-08-07T15:43:51.022Z,100971.33
2023-08-07T15:46:18.929Z,100971.55
2023-08-07T15:48:46.169Z,100978.86
2023-08-07T15:51:13.243Z,100979.52
2023-08-07T15:53:40.400Z,100973.82
2023-08-07T15:56:07.373Z,100980.38
2023-08-07T15:58:34.533Z,100977.16
2023-08-07T16:01:01.546Z,100973.88
2023-08-07T16:03:28.885Z,100974.16
2023-08-07T16:05:56.044Z,100976.09
2023-08-07T16:08:24.442Z,100971.58
2023-08-07T16:10:53.698Z,100974.17
2023-08-07T16:13:21.709Z,100973.33
2023-08-07T16:15:48.679Z,100970.79
2023-08-07T16:18:17.528Z,100969.45
2023-08-07T16:20:44.870Z,100964.31
2023-08-07T16:23:12.135Z,100967.02
2023-08-07T16:25:39.494Z,100967.15
2023-08-07T16:28:07.075Z,100960.46
2023-08-07T16:30:34.404Z,100960.48
2023-08-07T16:33:01.930Z,100957.11
2023-08-07T16:35:29.351Z,100955.83
2023-08-07T16:37:56.824Z,100953.84
2023-08-07T16:40:23.916Z,100952.65
2023-08-07T16:42:51.552Z,100952.79
2023-08-07T16:45:20.876Z,100955.01
2023-08-07T16:47:48.459Z,100962.80
2023-08-07T16:50:15.569Z,100955.87
2023-08-07T16:52:42.733Z,100963.09
2023-08-07T16:55:09.891Z,100961.45
2023-08-07T16:57:37.250Z,100962.55
2023-08-07T17:00:07.325Z,100959.48
2023-08-07T17:02:35.718Z,100955.48
2023-08-07T17:05:03.266Z,100959.70
2023-08-07T17:07:30.289Z,100960.34
2023-08-07T17:09:57.393Z,100962.84
2023-08-07T17:12:24.953Z,100963.91
2023-08-07T17:14:51.997Z,100963.15
2023-08-07T17:17:19.173Z,100962.10
2023-08-07T17:19:46.323Z,100966.43
2023-08-07T17:22:13.766Z,100966.05
2023-08-07T17:24:40.905Z,100968.54
2023-08-07T17:27:08.028Z,100963.89
2023-08-07T17:29:35.050Z,100962.73
2023-08-07T17:32:04.626Z,100962.86
2023-08-07T17:34:31.977Z,100963.48
2023-08-07T17:37:00.850Z,100958.06
2023-08-07T17:39:29.366Z,100958.52
2023-08-07T17:41:57.202Z,100958.62
2023-08-07T17:44:26.812Z,100959.15
2023-08-07T17:46:54.078Z,100965.41
2023-08-07T17:49:21.225Z,100964.71
2023-08-07T17:51:48.776Z,100962.06
2023-08-07T17:54:24.028Z,100966.51
2023-08-07T17:56:57.919Z,100960.79
2023-08-07T17:59:30.250Z,100968.13
2023-08-07T18:02:05.474Z,100973.11
2023-08-07T18:04:33.105Z,100981.11
2023-08-07T18:07:00.599Z,100990.27
2023-08-07T18:09:27.933Z,100992.31
2023-08-07T18:11:57.926Z,100996.58
2023-08-07T18:14:25.081Z,101004.65
2023-08-07T18:16:52.789Z,101012.77
2023-08-07T18:19:22.452Z,101014.45
2023-08-07T18:21:49.775Z,101021.17
2023-08-07T18:24:19.506Z,101024.36
2023-08-07T18:26:46.459Z,101028.69
2023-08-07T18:29:14.118Z,101016.87
2023-08-07T18:31:41.178Z,101013.67
2023-08-07T18:34:08.088Z,101011.71
2023-08-07T18:36:38.143Z,101012.02
2023-08-07T18:39:06.832Z,101021.59
2023-08-07T18:41:34.360Z,101032.73
2023-08-07T18:44:05.076Z,101034.54
2023-08-07T18:46:32.215Z,101042.82
2023-08-07T18:49:00.072Z,101043.63
2023-08-07T18:51:27.231Z,101042.80
2023-08-07T18:53:54.939Z,101039.29
2023-08-07T18:56:22.436Z,101037.65
2023-08-07T18:58:49.608Z,101033.77
2023-08-07T19:01:16.722Z,101034.09
2023-08-07T19:03:45.285Z,101038.71
2023-08-07T19:06:12.447Z,101048.40
2023-08-07T19:08:40.551Z,101058.52
2023-08-07T19:11:10.306Z,101072.66
2023-08-07T19:13:39.171Z,101076.40
2023-08-07T19:16:06.545Z,101084.06
2023-08-07T19:18:36.658Z,101088.79
2023-08-07T19:21:04.386Z,101093.89
2023-08-07T19:23:36.488Z,101099.63
2023-08-07T19:26:04.682Z,101100.85
2023-08-07T19:28:33.978Z,101100.45
2023-08-07T19:31:06.227Z,101103.38
2023-08-07T19:33:35.833Z,101109.05
2023-08-07T19:36:07.073Z,101111.38
2023-08-07T19:38:35.140Z,101112.40
2023-08-07T19:41:02.174Z,101114.88
2023-08-07T19:43:31.444Z,101108.55
2023-08-07T19:46:00.622Z,101099.69
2023-08-07T19:48:28.996Z,101099.52
2023-08-07T19:50:58.016Z,101099.12
2023-08-07T19:53:25.866Z,101097.73
2023-08-07T19:55:54.860Z,101092.33
2023-08-07T19:58:22.405Z,101084.45
2023-08-07T20:00:49.794Z,101079.57
2023-08-07T20:03:19.066Z,101072.09
2023-08-07T20:05:46.223Z,101068.86
2023-08-07T20:08:13.583Z,101081.05
2023-08-07T20:10:46.373Z,101076.77
2023-08-07T20:13:16.999Z,101080.58
2023-08-07T20:15:44.142Z,101087.08
2023-08-07T20:18:12.047Z,101092.68
2023-08-07T20:20:40.540Z,101090.70
2023-08-07T20:23:08.138Z,101089.09
2023-08-07T20:25:35.081Z,101090.73
2023-08-07T20:28:02.754Z,101093.75
2023-08-07T20:30:30.548Z,101097.50
2023-08-07T20:32:57.912Z,101099.16
2023-08-07T20:35:25.040Z,101096.74
2023-08-07T20:37:52.144Z,101101.22
2023-08-07T20:40:19.212Z,101102.90
2023-08-07T20:42:46.259Z,101099.31
2023-08-07T20:45:13.412Z,101097.70
2023-08-07T20:47:40.575Z,101103.62
2023-08-07T20:50:08.331Z,101111.71
2023-08-07T20:52:36.872Z,101126.52
2023-08-07T20:55:04.678Z,101132.32
2023-08-07T20:57:31.657Z,101106.88
2023-08-07T20:59:58.751Z,101068.91
2023-08-07T21:02:26.956Z,101056.80
2023-08-07T21:04:54.216Z,101075.67
2023-08-07T21:07:21.864Z,101100.19
2023-08-07T21:09:49.107Z,101123.59
2023-08-07T21:12:16.375Z,101111.70
2023-08-07T21:14:43.834Z,101107.63
2023-08-07T21:17:11.006Z,101105.08
2023-08-07T21:19:38.942Z,101098.86
2023-08-07T21:22:06.482Z,101091.24
2023-08-07T21:24:33.517Z,101118.23
2023-08-07T21:27:00.698Z,101117.59
2023-08-07T21:29:27.743Z,101102.48
2023-08-07T21:31:54.892Z,101095.35
2023-08-07T21:34:22.250Z,101094.61
2023-08-07T21:36:49.343Z,101098.94
2023-08-07T21:39:16.620Z,101103.40
2023-08-07T21:41:43.806Z,101103.48
2023-08-07T21:44:13.722Z,101091.89
2023-08-07T21:46:41.925Z,101091.20
2023-08-07T21:49:09.248Z,101087.81
2023-08-07T21:51:36.900Z,101080.64
2023-08-07T21:54:03.932Z,101076.30
2023-08-07T21:56:31.099Z,101077.50
2023-08-07T21:58:58.483Z,101073.81
2023-08-07T22:01:27.066Z,101079.64
2023-08-07T22:03:55.154Z,101078.77
2023-08-07T22:06:22.293Z,101074.13
2023-08-07T22:08:49.436Z,101075.91
2023-08-07T22:11:16.515Z,101075.91
2023-08-07T22:13:48.334Z,101072.55
2023-08-07T22:16:15.670Z,101072.16
2023-08-07T22:18:44.606Z,101081.77
2023-08-07T22:21:14.594Z,101083.45
2023-08-07T22:23:45.692Z,101075.58
2023-08-07T22:26:14.022Z,101064.55
2023-08-07T22:28:45.486Z,101069.98
2023-08-07T22:31:13.064Z,101078.27
2023-08-07T22:33:40.288Z,101078.64
2023-08-07T22:36:12.793Z,101074.45
2023-08-07T22:38:40.659Z,101067.98
2023-08-07T22:41:08.689Z,101070.73
2023-08-07T22:43:35.819Z,101066.42
2023-08-07T22:46:06.125Z,101064.40
2023-08-07T22:48:33.506Z,101067.22
2023-08-07T22:51:02.737Z,101067.13
2023-08-07T22:53:31.389Z,101066.41
2023-08-07T22:55:59.272Z,101068.05
2023-08-07T22:58:26.318Z,101066.96
2023-08-07T23:00:53.476Z,101063.52
2023-08-07T23:03:20.928Z,101058.73
2023-08-07T23:05:48.639Z,101059.72
2023-08-07T23:08:15.839Z,101065.00
2023-08-07T23:10:43.193Z,101057.44
2023-08-07T23:13:10.337Z,101059.43
2023-08-07T23:15:39.808Z,101060.34
2023-08-07T23:18:07.016Z,101056.98
2023-08-07T23:20:34.450Z,101054.71
2023-08-07T23:23:01.648Z,101054.27
2023-08-07T23:25:30.080Z,101051.07
2023-08-07T23:27:57.145Z,101050.37
2023-08-07T23:30:24.249Z,101047.70
2023-08-07T23:32:51.466Z,101046.73
2023-08-07T23:35:18.668Z,101045.98
2023-08-07T23:37:46.341Z,101043.30
2023-08-07T23:40:13.488Z,101045.21
2023-08-07T23:42:40.538Z,101045.23
2023-08-07T23:45:10.820Z,101040.95
2023-08-07T23:47:38.189Z,101041.38
2023-08-07T23:50:06.593Z,101041.09
2023-08-07T23:52:34.283Z,101038.73
2023-08-07T23:55:01.626Z,101036.25
2023-08-07T23:57:28.697Z,101032.63
2023-08-07T23:59:55.814Z,101034.81
